createdAt,value
2018-06-03T00:00:05.635Z,0
2018-06-03T00:01:06.210Z,0
2018-06-03T00:02:06.770Z,0
2018-06-03T00:03:07.313Z,0
2018-06-03T00:04:07.893Z,0
2018-06-03T00:05:08.423Z,0
2018-06-03T00:06:08.973Z,0
2018-06-03T00:07:09.522Z,0
2018-06-03T00:08:10.067Z,0
2018-06-03T00:09:10.619Z,0
2018-06-03T00:10:11.163Z,0
2018-06-03T00:11:11.712Z,0
2018-06-03T00:12:12.260Z,0
2018-06-03T00:13:12.809Z,0
2018-06-03T00:14:13.360Z,0
2018-06-03T00:15:13.901Z,0
2018-06-03T00:16:14.452Z,0
2018-06-03T00:17:15.006Z,0
2018-06-03T00:18:15.550Z,0
2018-06-03T00:19:16.100Z,0
2018-06-03T00:20:16.656Z,0
2018-06-03T00:21:17.207Z,0
2018-06-03T00:22:17.758Z,0
2018-06-03T00:23:18.309Z,0
2018-06-03T00:24:18.857Z,0
2018-06-03T00:25:19.411Z,0
2018-06-03T00:26:19.960Z,0
2018-06-03T00:27:20.510Z,0
2018-06-03T00:28:21.062Z,0
2018-06-03T00:29:21.612Z,0
2018-06-03T00:30:22.162Z,0
2018-06-03T00:31:22.710Z,0
2018-06-03T00:32:23.256Z,0
2018-06-03T00:33:24.007Z,0
2018-06-03T00:34:24.551Z,0
2018-06-03T00:35:25.101Z,0
2018-06-03T00:36:25.651Z,0
2018-06-03T00:37:26.199Z,0
2018-06-03T00:38:26.742Z,0
2018-06-03T00:39:27.296Z,0
2018-06-03T00:40:27.902Z,0
2018-06-03T00:41:28.390Z,0
2018-06-03T00:42:28.940Z,0
2018-06-03T00:43:29.490Z,0
2018-06-03T00:44:30.039Z,0
2018-06-03T00:45:30.586Z,0
2018-06-03T00:46:31.134Z,0
2018-06-03T00:47:31.677Z,0
2018-06-03T00:48:32.232Z,0
2018-06-03T00:49:32.779Z,0
2018-06-03T00:50:33.327Z,0
2018-06-03T00:51:33.879Z,0
2018-06-03T00:52:34.427Z,0
2018-06-03T00:53:34.977Z,0
2018-06-03T00:54:35.527Z,0
2018-06-03T00:55:36.076Z,0
2018-06-03T00:56:36.627Z,0
2018-06-03T00:57:37.178Z,0
2018-06-03T00:58:37.731Z,0
2018-06-03T00:59:38.278Z,0
2018-06-03T01:00:38.829Z,0
2018-06-03T01:01:39.380Z,0
2018-06-03T01:02:39.930Z,0
2018-06-03T01:03:40.477Z,0
2018-06-03T01:04:41.028Z,0
2018-06-03T01:05:41.578Z,0
2018-06-03T01:06:42.132Z,0
2018-06-03T01:07:42.675Z,0
2018-06-03T01:08:43.218Z,0
2018-06-03T01:09:43.768Z,0
2018-06-03T01:10:44.312Z,0
2018-06-03T01:11:44.864Z,0
2018-06-03T01:12:45.411Z,0
2018-06-03T01:13:45.961Z,0
2018-06-03T01:14:46.509Z,0
2018-06-03T01:15:47.062Z,0
2018-06-03T01:16:47.613Z,0
2018-06-03T01:17:48.163Z,0
2018-06-03T01:18:48.709Z,0
2018-06-03T01:19:49.258Z,0
2018-06-03T01:20:49.802Z,0
2018-06-03T01:21:50.351Z,0
2018-06-03T01:22:50.899Z,0
2018-06-03T01:23:51.448Z,0
2018-06-03T01:24:51.996Z,0
2018-06-03T01:25:52.544Z,0
2018-06-03T01:26:53.093Z,0
2018-06-03T01:27:53.640Z,0
2018-06-03T01:28:54.184Z,0
2018-06-03T01:29:54.732Z,0
2018-06-03T01:30:55.282Z,0
2018-06-03T01:31:55.825Z,0
2018-06-03T01:32:56.367Z,0
2018-06-03T01:33:56.918Z,0
2018-06-03T01:34:57.461Z,0
2018-06-03T01:35:58.008Z,0
2018-06-03T01:36:58.558Z,0
2018-06-03T01:37:59.109Z,0
2018-06-03T01:38:59.659Z,0
2018-06-03T01:40:00.217Z,0
2018-06-03T01:41:00.764Z,0
2018-06-03T01:42:01.315Z,0
2018-06-03T01:43:01.863Z,0
2018-06-03T01:44:02.411Z,0
2018-06-03T01:45:02.952Z,0
2018-06-03T01:46:03.504Z,0
2018-06-03T01:47:04.057Z,0
2018-06-03T01:48:04.608Z,0
2018-06-03T01:49:05.156Z,0
2018-06-03T01:50:05.708Z,0
2018-06-03T01:51:06.259Z,0
2018-06-03T01:52:06.817Z,0
2018-06-03T01:53:07.363Z,0
2018-06-03T01:54:07.909Z,0
2018-06-03T01:55:08.457Z,0
2018-06-03T01:56:09.005Z,0
2018-06-03T01:57:09.548Z,0
2018-06-03T01:58:10.102Z,0
2018-06-03T01:59:10.656Z,0
2018-06-03T02:00:11.205Z,0
2018-06-03T02:01:11.752Z,0
2018-06-03T02:02:12.303Z,0
2018-06-03T02:03:12.845Z,0
2018-06-03T02:04:13.391Z,0
2018-06-03T02:05:13.937Z,0
2018-06-03T02:06:14.485Z,0
2018-06-03T02:07:15.033Z,0
2018-06-03T02:08:15.575Z,0
2018-06-03T02:09:16.125Z,0
2018-06-03T02:10:16.675Z,0
2018-06-03T02:11:17.224Z,0
2018-06-03T02:12:17.767Z,0
2018-06-03T02:13:18.320Z,0
2018-06-03T02:14:18.884Z,0
2018-06-03T02:15:19.421Z,0
2018-06-03T02:16:19.966Z,0
2018-06-03T02:17:20.519Z,0
2018-06-03T02:18:21.070Z,0
2018-06-03T02:19:21.618Z,0
2018-06-03T02:20:22.165Z,0
2018-06-03T02:21:22.716Z,0
2018-06-03T02:22:23.260Z,0
2018-06-03T02:23:23.814Z,0
2018-06-03T02:24:24.360Z,0
2018-06-03T02:25:24.908Z,0
2018-06-03T02:26:25.462Z,0
2018-06-03T02:27:26.011Z,0
2018-06-03T02:28:26.555Z,0
2018-06-03T02:29:27.107Z,0
2018-06-03T02:30:27.655Z,0
2018-06-03T02:31:28.205Z,0
2018-06-03T02:32:28.762Z,0
2018-06-03T02:33:29.315Z,0
2018-06-03T02:34:29.868Z,0
2018-06-03T02:35:30.413Z,0
2018-06-03T02:36:30.962Z,0
2018-06-03T02:37:31.513Z,0
2018-06-03T02:38:32.066Z,0
2018-06-03T02:39:32.617Z,0
2018-06-03T02:40:33.167Z,4
2018-06-03T02:41:33.718Z,4
2018-06-03T02:42:34.273Z,4
2018-06-03T02:43:34.820Z,0
2018-06-03T02:44:35.373Z,4
2018-06-03T02:45:35.917Z,4
2018-06-03T02:46:36.468Z,4
2018-06-03T02:47:37.011Z,4
2018-06-03T02:48:37.554Z,8
2018-06-03T02:49:38.101Z,8
2018-06-03T02:50:38.653Z,8
2018-06-03T02:51:39.197Z,12
2018-06-03T02:52:39.756Z,12
2018-06-03T02:53:40.303Z,12
2018-06-03T02:54:40.857Z,12
2018-06-03T02:55:41.402Z,16
2018-06-03T02:56:41.954Z,20
2018-06-03T02:57:42.506Z,20
2018-06-03T02:58:43.057Z,24
2018-06-03T02:59:43.614Z,24
2018-06-03T03:00:44.152Z,32
2018-06-03T03:01:44.701Z,36
2018-06-03T03:02:45.244Z,40
2018-06-03T03:03:45.795Z,44
2018-06-03T03:04:46.342Z,52
2018-06-03T03:05:46.891Z,60
2018-06-03T03:06:47.465Z,68
2018-06-03T03:07:47.988Z,76
2018-06-03T03:08:48.538Z,84
2018-06-03T03:09:49.091Z,96
2018-06-03T03:10:49.635Z,104
2018-06-03T03:11:50.185Z,112
2018-06-03T03:12:50.735Z,128
2018-06-03T03:13:51.280Z,140
2018-06-03T03:14:51.833Z,152
2018-06-03T03:15:52.388Z,172
2018-06-03T03:16:52.932Z,188
2018-06-03T03:17:53.482Z,208
2018-06-03T03:18:54.035Z,224
2018-06-03T03:19:54.587Z,248
2018-06-03T03:20:55.142Z,268
2018-06-03T03:21:55.695Z,288
2018-06-03T03:22:56.244Z,316
2018-06-03T03:23:56.790Z,344
2018-06-03T03:24:57.351Z,372
2018-06-03T03:25:57.898Z,404
2018-06-03T03:26:58.448Z,432
2018-06-03T03:27:58.994Z,464
2018-06-03T03:28:59.545Z,504
2018-06-03T03:30:00.096Z,540
2018-06-03T03:31:00.651Z,584
2018-06-03T03:32:01.195Z,620
2018-06-03T03:33:01.743Z,664
2018-06-03T03:34:02.296Z,704
2018-06-03T03:35:02.847Z,752
2018-06-03T03:36:03.397Z,796
2018-06-03T03:37:03.953Z,840
2018-06-03T03:38:04.504Z,888
2018-06-03T03:39:05.059Z,936
2018-06-03T03:40:05.610Z,984
2018-06-03T03:41:06.163Z,1032
2018-06-03T03:42:06.716Z,1084
2018-06-03T03:43:07.271Z,1132
2018-06-03T03:44:07.819Z,1184
2018-06-03T03:45:08.371Z,1232
2018-06-03T03:46:08.922Z,1284
2018-06-03T03:47:09.474Z,1340
2018-06-03T03:48:10.028Z,1404
2018-06-03T03:49:10.581Z,1468
2018-06-03T03:50:11.140Z,1548
2018-06-03T03:51:11.690Z,1628
2018-06-03T03:52:12.242Z,1708
2018-06-03T03:53:12.798Z,1788
2018-06-03T03:54:13.354Z,1864
2018-06-03T03:55:13.908Z,1940
2018-06-03T03:56:14.453Z,2016
2018-06-03T03:57:15.008Z,2096
2018-06-03T03:58:15.555Z,2176
2018-06-03T03:59:16.107Z,2264
2018-06-03T04:00:16.660Z,2344
2018-06-03T04:01:17.213Z,2416
2018-06-03T04:02:17.769Z,2500
2018-06-03T04:03:18.323Z,2592
2018-06-03T04:04:18.881Z,2692
2018-06-03T04:05:19.423Z,2784
2018-06-03T04:06:19.980Z,2872
2018-06-03T04:07:20.530Z,2960
2018-06-03T04:08:21.086Z,3052
2018-06-03T04:09:21.641Z,3148
2018-06-03T04:10:22.196Z,3248
2018-06-03T04:11:22.742Z,3344
2018-06-03T04:12:23.291Z,3448
2018-06-03T04:13:23.847Z,3560
2018-06-03T04:14:24.403Z,3672
2018-06-03T04:15:24.956Z,3776
2018-06-03T04:16:25.509Z,3868
2018-06-03T04:17:26.060Z,3960
2018-06-03T04:18:26.617Z,4040
2018-06-03T04:19:27.167Z,4112
2018-06-03T04:20:27.718Z,4192
2018-06-03T04:21:28.278Z,4284
2018-06-03T04:22:28.832Z,4388
2018-06-03T04:23:29.386Z,4496
2018-06-03T04:24:29.941Z,4588
2018-06-03T04:25:30.492Z,4676
2018-06-03T04:26:31.046Z,4752
2018-06-03T04:27:31.601Z,4832
2018-06-03T04:28:32.159Z,4928
2018-06-03T04:29:32.718Z,5044
2018-06-03T04:30:33.266Z,5176
2018-06-03T04:31:33.828Z,5316
2018-06-03T04:32:34.376Z,5456
2018-06-03T04:33:34.931Z,5580
2018-06-03T04:34:35.486Z,5708
2018-06-03T04:35:36.043Z,5836
2018-06-03T04:36:36.600Z,5968
2018-06-03T04:37:37.157Z,6120
2018-06-03T04:38:37.709Z,6288
2018-06-03T04:39:38.264Z,6468
2018-06-03T04:40:38.818Z,6664
2018-06-03T04:41:39.379Z,6868
2018-06-03T04:42:39.937Z,7072
2018-06-03T04:43:40.498Z,7236
2018-06-03T04:44:41.049Z,7348
2018-06-03T04:45:41.607Z,7432
2018-06-03T04:46:42.159Z,7496
2018-06-03T04:47:42.715Z,7556
2018-06-03T04:48:43.275Z,7616
2018-06-03T04:49:43.831Z,7776
2018-06-03T04:50:44.380Z,8012
2018-06-03T04:51:44.939Z,8204
2018-06-03T04:52:45.500Z,8248
2018-06-03T04:53:46.053Z,8352
2018-06-03T04:54:46.610Z,8432
2018-06-03T04:55:47.171Z,8552
2018-06-03T04:56:47.722Z,8596
2018-06-03T04:57:48.274Z,8516
2018-06-03T04:58:48.832Z,8620
2018-06-03T04:59:49.388Z,8964
2018-06-03T05:00:49.943Z,9088
2018-06-03T05:01:50.501Z,9040
2018-06-03T05:02:51.059Z,9300
2018-06-03T05:03:51.688Z,9636
2018-06-03T05:04:52.176Z,10044
2018-06-03T05:05:52.732Z,10320
2018-06-03T05:06:53.290Z,10468
2018-06-03T05:07:53.854Z,10536
2018-06-03T05:08:54.405Z,10584
2018-06-03T05:09:54.967Z,10324
2018-06-03T05:10:55.521Z,10600
2018-06-03T05:11:56.080Z,10296
2018-06-03T05:12:56.636Z,9876
2018-06-03T05:13:57.196Z,9780
2018-06-03T05:14:57.757Z,9652
2018-06-03T05:15:58.306Z,9748
2018-06-03T05:16:58.863Z,10268
2018-06-03T05:17:59.426Z,10808
2018-06-03T05:18:59.982Z,10964
2018-06-03T05:20:00.541Z,11260
2018-06-03T05:21:01.106Z,11648
2018-06-03T05:22:01.666Z,11940
2018-06-03T05:23:02.222Z,12572
2018-06-03T05:24:02.774Z,13724
2018-06-03T05:25:03.334Z,14700
2018-06-03T05:26:03.891Z,15248
2018-06-03T05:27:04.455Z,14936
2018-06-03T05:28:05.015Z,14972
2018-06-03T05:29:05.572Z,16396
2018-06-03T05:30:06.138Z,18176
2018-06-03T05:31:06.696Z,19008
2018-06-03T05:32:07.252Z,19328
2018-06-03T05:33:07.822Z,19680
2018-06-03T05:34:08.383Z,20032
2018-06-03T05:35:08.950Z,20224
2018-06-03T05:36:09.508Z,20288
2018-06-03T05:37:10.065Z,20576
2018-06-03T05:38:10.626Z,21088
2018-06-03T05:39:11.190Z,21472
2018-06-03T05:40:11.759Z,21696
2018-06-03T05:41:12.329Z,22144
2018-06-03T05:42:12.886Z,22784
2018-06-03T05:43:13.450Z,23136
2018-06-03T05:44:14.019Z,23136
2018-06-03T05:45:14.583Z,23040
2018-06-03T05:46:15.147Z,22848
2018-06-03T05:47:15.716Z,22784
2018-06-03T05:48:16.285Z,22592
2018-06-03T05:49:16.849Z,22368
2018-06-03T05:50:17.412Z,22240
2018-06-03T05:51:17.972Z,22304
2018-06-03T05:52:18.538Z,22656
2018-06-03T05:53:19.101Z,22976
2018-06-03T05:54:19.671Z,24032
2018-06-03T05:55:20.244Z,24096
2018-06-03T05:56:20.806Z,22496
2018-06-03T05:57:21.372Z,22144
2018-06-03T05:58:21.942Z,21216
2018-06-03T05:59:22.509Z,21792
2018-06-03T06:00:23.076Z,21728
2018-06-03T06:01:23.643Z,21952
2018-06-03T06:02:24.208Z,21376
2018-06-03T06:03:24.769Z,20640
2018-06-03T06:04:25.332Z,20352
2018-06-03T06:05:25.900Z,21536
2018-06-03T06:06:26.465Z,22048
2018-06-03T06:07:27.029Z,21888
2018-06-03T06:08:27.594Z,22464
2018-06-03T06:09:28.154Z,23392
2018-06-03T06:10:28.717Z,23840
2018-06-03T06:11:29.280Z,25664
2018-06-03T06:12:29.845Z,26336
2018-06-03T06:13:30.409Z,28704
2018-06-03T06:14:30.977Z,30368
2018-06-03T06:15:31.545Z,31232
2018-06-03T06:16:32.111Z,30912
2018-06-03T06:17:32.671Z,33920
2018-06-03T06:18:33.238Z,35456
2018-06-03T06:19:33.807Z,32224
2018-06-03T06:20:34.374Z,27840
2018-06-03T06:21:34.940Z,26144
2018-06-03T06:22:35.509Z,25152
2018-06-03T06:23:36.079Z,24672
2018-06-03T06:24:36.640Z,24608
2018-06-03T06:25:37.202Z,24864
2018-06-03T06:26:37.769Z,25248
2018-06-03T06:27:38.341Z,25600
2018-06-03T06:28:38.904Z,25984
2018-06-03T06:29:39.467Z,26368
2018-06-03T06:30:40.033Z,27456
2018-06-03T06:31:40.592Z,26528
2018-06-03T06:32:41.162Z,27008
2018-06-03T06:33:41.720Z,27616
2018-06-03T06:34:42.299Z,28288
2018-06-03T06:35:42.847Z,28672
2018-06-03T06:36:43.417Z,28928
2018-06-03T06:37:43.978Z,29024
2018-06-03T06:38:44.544Z,29280
2018-06-03T06:39:45.105Z,29440
2018-06-03T06:40:45.683Z,29312
2018-06-03T06:41:46.234Z,28928
2018-06-03T06:42:46.800Z,28416
2018-06-03T06:43:47.365Z,28704
2018-06-03T06:44:47.925Z,33600
2018-06-03T06:45:48.486Z,34752
2018-06-03T06:46:49.051Z,27968
2018-06-03T06:47:49.619Z,27584
2018-06-03T06:48:50.181Z,27712
2018-06-03T06:49:50.744Z,27936
2018-06-03T06:50:51.308Z,27936
2018-06-03T06:51:51.879Z,28128
2018-06-03T06:52:52.442Z,28768
2018-06-03T06:53:53.005Z,28448
2018-06-03T06:54:53.579Z,29312
2018-06-03T06:55:54.136Z,32544
2018-06-03T06:56:54.704Z,28096
2018-06-03T06:57:55.266Z,28672
2018-06-03T06:58:55.833Z,29152
2018-06-03T06:59:56.400Z,29312
2018-06-03T07:00:56.965Z,30368
2018-06-03T07:01:57.538Z,33920
2018-06-03T07:02:58.107Z,31328
2018-06-03T07:03:58.675Z,31104
2018-06-03T07:04:59.244Z,31840
2018-06-03T07:05:59.813Z,35424
2018-06-03T07:07:00.377Z,35072
2018-06-03T07:08:00.947Z,31392
2018-06-03T07:09:01.510Z,31648
2018-06-03T07:10:02.079Z,32000
2018-06-03T07:11:02.643Z,31744
2018-06-03T07:12:03.256Z,31296
2018-06-03T07:13:03.817Z,31392
2018-06-03T07:14:04.340Z,32480
2018-06-03T07:15:04.910Z,38528
2018-06-03T07:16:05.472Z,47776
2018-06-03T07:17:06.044Z,55744
2018-06-03T07:18:06.613Z,49888
2018-06-03T07:19:07.181Z,38336
2018-06-03T07:20:07.750Z,35840
2018-06-03T07:21:08.312Z,36320
2018-06-03T07:22:08.880Z,35968
2018-06-03T07:23:09.449Z,41216
2018-06-03T07:24:10.025Z,52000
2018-06-03T07:25:10.590Z,59904
2018-06-03T07:26:11.159Z,57984
2018-06-03T07:27:11.725Z,48064
2018-06-03T07:28:12.287Z,54624
2018-06-03T07:29:12.854Z,54240
2018-06-03T07:30:13.424Z,42784
2018-06-03T07:31:13.998Z,50496
2018-06-03T07:32:14.562Z,58240
2018-06-03T07:33:15.143Z,59776
2018-06-03T07:34:15.704Z,60224
2018-06-03T07:35:16.275Z,62080
2018-06-03T07:36:16.849Z,61984
2018-06-03T07:37:17.417Z,55200
2018-06-03T07:38:18.008Z,54784
2018-06-03T07:39:18.556Z,62336
2018-06-03T07:40:19.131Z,62624
2018-06-03T07:41:19.701Z,64448
2018-06-03T07:42:20.267Z,64640
2018-06-03T07:43:20.835Z,65792
2018-06-03T07:44:21.407Z,68256
2018-06-03T07:45:21.987Z,68992
2018-06-03T07:46:22.561Z,68480
2018-06-03T07:47:23.136Z,67776
2018-06-03T07:48:23.707Z,69184
2018-06-03T07:49:24.285Z,70688
2018-06-03T07:50:24.907Z,71360
2018-06-03T07:51:25.426Z,72864
2018-06-03T07:52:25.998Z,71680
2018-06-03T07:53:26.572Z,70784
2018-06-03T07:54:27.142Z,69600
2018-06-03T07:55:27.716Z,75072
2018-06-03T07:56:28.291Z,77504
2018-06-03T07:57:28.862Z,80832
2018-06-03T07:58:29.431Z,81696
2018-06-03T07:59:30.005Z,81504
2018-06-03T08:00:30.584Z,79776
2018-06-03T08:01:31.157Z,80608
2018-06-03T08:02:31.734Z,78080
2018-06-03T08:03:32.309Z,79488
2018-06-03T08:04:32.889Z,79936
2018-06-03T08:05:33.466Z,79456
2018-06-03T08:06:34.040Z,80832
2018-06-03T08:07:34.612Z,81344
2018-06-03T08:08:35.187Z,77792
2018-06-03T08:09:35.769Z,78112
2018-06-03T08:10:36.334Z,78048
2018-06-03T08:11:36.909Z,78016
2018-06-03T08:12:37.483Z,80800
2018-06-03T08:13:38.070Z,83648
2018-06-03T08:14:38.627Z,84416
2018-06-03T08:15:39.202Z,65152
2018-06-03T08:16:39.775Z,32992
2018-06-03T08:17:40.348Z,32384
2018-06-03T08:18:40.918Z,33216
2018-06-03T08:19:41.486Z,34336
2018-06-03T08:20:42.058Z,35552
2018-06-03T08:21:42.629Z,37088
2018-06-03T08:22:43.250Z,37696
2018-06-03T08:23:43.763Z,41280
2018-06-03T08:24:44.332Z,54176
2018-06-03T08:25:44.902Z,59872
2018-06-03T08:26:45.472Z,84512
2018-06-03T08:27:46.047Z,77888
2018-06-03T08:28:46.620Z,54784
2018-06-03T08:29:47.197Z,85984
2018-06-03T08:30:47.757Z,87616
2018-06-03T08:31:48.327Z,66912
2018-06-03T08:32:48.898Z,71936
2018-06-03T08:33:49.470Z,85952
2018-06-03T08:34:50.037Z,86016
2018-06-03T08:35:50.605Z,86080
2018-06-03T08:36:51.175Z,87232
2018-06-03T08:37:51.748Z,87680
2018-06-03T08:38:52.314Z,52128
2018-06-03T08:39:52.891Z,68320
2018-06-03T08:40:53.463Z,77600
2018-06-03T08:41:54.038Z,67648
2018-06-03T08:42:54.607Z,48832
2018-06-03T08:43:55.176Z,36320
2018-06-03T08:44:55.749Z,32256
2018-06-03T08:45:56.315Z,32032
2018-06-03T08:46:56.883Z,43840
2018-06-03T08:47:57.454Z,56096
2018-06-03T08:48:58.020Z,92704
2018-06-03T08:49:58.590Z,95232
2018-06-03T08:50:59.159Z,89344
2018-06-03T08:51:59.732Z,60288
2018-06-03T08:53:00.302Z,63904
2018-06-03T08:54:00.873Z,52384
2018-06-03T08:55:01.444Z,58688
2018-06-03T08:56:02.126Z,54976
2018-06-03T08:57:02.689Z,92352
2018-06-03T08:58:03.260Z,99168
2018-06-03T08:59:03.825Z,99968
2018-06-03T09:00:04.399Z,88864
2018-06-03T09:01:04.966Z,57248
2018-06-03T09:02:05.544Z,70560
2018-06-03T09:03:06.114Z,91104
2018-06-03T09:04:06.680Z,97088
2018-06-03T09:05:07.247Z,98848
2018-06-03T09:06:07.820Z,90144
2018-06-03T09:07:08.390Z,87104
2018-06-03T09:08:08.956Z,86176
2018-06-03T09:09:09.529Z,91136
2018-06-03T09:10:10.099Z,87008
2018-06-03T09:11:10.668Z,88448
2018-06-03T09:12:11.241Z,84352
2018-06-03T09:13:11.875Z,86304
2018-06-03T09:14:12.382Z,99840
2018-06-03T09:15:12.961Z,96480
2018-06-03T09:16:13.527Z,92864
2018-06-03T09:17:14.101Z,89504
2018-06-03T09:18:14.667Z,89216
2018-06-03T09:19:15.240Z,88224
2018-06-03T09:20:15.813Z,87616
2018-06-03T09:21:16.388Z,89664
2018-06-03T09:22:16.962Z,94464
2018-06-03T09:23:17.529Z,96864
2018-06-03T09:24:18.101Z,97088
2018-06-03T09:25:18.677Z,96864
2018-06-03T09:26:19.252Z,95744
2018-06-03T09:27:19.825Z,92672
2018-06-03T09:28:20.396Z,89088
2018-06-03T09:29:20.964Z,93248
2018-06-03T09:30:21.539Z,98304
2018-06-03T09:31:22.105Z,103712
2018-06-03T09:32:22.673Z,107296
2018-06-03T09:33:23.248Z,108160
2018-06-03T09:34:23.821Z,105152
2018-06-03T09:35:24.390Z,102336
2018-06-03T09:36:24.963Z,99776
2018-06-03T09:37:25.531Z,95776
2018-06-03T09:38:26.101Z,96064
2018-06-03T09:39:26.675Z,100032
2018-06-03T09:40:27.248Z,107168
2018-06-03T09:41:27.822Z,109440
2018-06-03T09:42:28.398Z,109824
2018-06-03T09:43:28.964Z,109888
2018-06-03T09:44:29.585Z,108288
2018-06-03T09:45:30.124Z,107840
2018-06-03T09:46:30.696Z,108352
2018-06-03T09:47:31.273Z,106432
2018-06-03T09:48:31.847Z,105024
2018-06-03T09:49:32.419Z,104928
2018-06-03T09:50:32.996Z,106592
2018-06-03T09:51:33.573Z,110176
2018-06-03T09:52:34.145Z,115776
2018-06-03T09:53:34.761Z,118304
2018-06-03T09:54:35.285Z,115456
2018-06-03T09:55:35.860Z,109728
2018-06-03T09:56:36.436Z,104224
2018-06-03T09:57:37.009Z,101952
2018-06-03T09:58:37.586Z,104096
2018-06-03T09:59:38.166Z,103328
2018-06-03T10:00:38.729Z,113024
2018-06-03T10:01:39.302Z,119040
2018-06-03T10:02:39.872Z,123904
2018-06-03T10:03:40.449Z,117888
2018-06-03T10:04:41.023Z,112672
2018-06-03T10:05:41.595Z,110112
2018-06-03T10:06:42.174Z,112864
2018-06-03T10:07:42.742Z,119968
2018-06-03T10:08:43.321Z,128928
2018-06-03T10:09:43.890Z,124736
2018-06-03T10:10:44.470Z,124960
2018-06-03T10:11:45.051Z,120032
2018-06-03T10:12:45.623Z,115296
2018-06-03T10:13:46.203Z,112576
2018-06-03T10:14:46.778Z,113760
2018-06-03T10:15:47.351Z,118208
2018-06-03T10:16:47.933Z,124704
2018-06-03T10:17:48.507Z,126176
2018-06-03T10:18:49.082Z,123040
2018-06-03T10:19:49.658Z,122016
2018-06-03T10:20:50.235Z,118976
2018-06-03T10:21:50.814Z,109824
2018-06-03T10:22:51.390Z,108320
2018-06-03T10:23:51.965Z,116224
2018-06-03T10:24:52.542Z,121312
2018-06-03T10:25:53.114Z,58976
2018-06-03T10:26:53.711Z,65472
2018-06-03T10:27:54.263Z,43264
2018-06-03T10:28:54.833Z,42976
2018-06-03T10:29:55.400Z,59680
2018-06-03T10:30:55.977Z,85600
2018-06-03T10:31:56.551Z,116672
2018-06-03T10:32:57.124Z,118304
2018-06-03T10:33:57.700Z,117696
2018-06-03T10:34:58.275Z,119488
2018-06-03T10:35:58.849Z,119712
2018-06-03T10:36:59.425Z,121824
2018-06-03T10:37:59.999Z,122208
2018-06-03T10:39:00.580Z,123744
2018-06-03T10:40:01.180Z,126912
2018-06-03T10:41:01.714Z,126592
2018-06-03T10:42:02.283Z,132128
2018-06-03T10:43:02.863Z,134848
2018-06-03T10:44:03.439Z,118208
2018-06-03T10:45:04.013Z,71616
2018-06-03T10:46:04.582Z,69568
2018-06-03T10:47:05.159Z,47584
2018-06-03T10:48:05.732Z,40416
2018-06-03T10:49:06.306Z,42592
2018-06-03T10:50:06.878Z,55328
2018-06-03T10:51:07.443Z,49472
2018-06-03T10:52:08.016Z,81504
2018-06-03T10:53:08.587Z,121120
2018-06-03T10:54:09.163Z,97984
2018-06-03T10:55:09.727Z,126368
2018-06-03T10:56:10.304Z,108512
2018-06-03T10:57:10.874Z,128672
2018-06-03T10:58:11.448Z,131328
2018-06-03T10:59:12.015Z,119424
2018-06-03T11:00:12.588Z,55904
2018-06-03T11:01:13.157Z,49152
2018-06-03T11:02:13.731Z,50816
2018-06-03T11:03:14.306Z,74464
2018-06-03T11:04:14.871Z,98656
2018-06-03T11:05:15.441Z,119808
2018-06-03T11:06:16.009Z,83648
2018-06-03T11:07:16.577Z,64000
2018-06-03T11:08:17.146Z,77312
2018-06-03T11:09:17.715Z,121152
2018-06-03T11:10:18.327Z,124960
2018-06-03T11:11:18.866Z,129760
2018-06-03T11:12:19.434Z,132672
2018-06-03T11:13:20.010Z,133408
2018-06-03T11:14:20.585Z,129184
2018-06-03T11:15:21.160Z,126240
2018-06-03T11:16:21.733Z,125440
2018-06-03T11:17:22.308Z,128352
2018-06-03T11:18:22.881Z,125024
2018-06-03T11:19:23.450Z,118944
2018-06-03T11:20:24.026Z,107104
2018-06-03T11:21:24.596Z,52544
2018-06-03T11:22:25.161Z,47168
2018-06-03T11:23:25.736Z,45376
2018-06-03T11:24:26.309Z,45184
2018-06-03T11:25:26.883Z,45120
2018-06-03T11:26:27.458Z,41952
2018-06-03T11:27:28.073Z,35360
2018-06-03T11:28:28.603Z,32416
2018-06-03T11:29:29.172Z,30752
2018-06-03T11:30:29.747Z,30208
2018-06-03T11:31:30.314Z,29984
2018-06-03T11:32:30.883Z,30592
2018-06-03T11:33:31.456Z,31328
2018-06-03T11:34:32.023Z,31968
2018-06-03T11:35:32.595Z,33792
2018-06-03T11:36:33.164Z,35648
2018-06-03T11:37:33.728Z,37184
2018-06-03T11:38:34.301Z,43136
2018-06-03T11:39:34.872Z,102496
2018-06-03T11:40:35.439Z,125856
2018-06-03T11:41:36.011Z,126272
2018-06-03T11:42:36.582Z,64256
2018-06-03T11:43:37.155Z,50848
2018-06-03T11:44:37.725Z,45952
2018-06-03T11:45:38.303Z,51104
2018-06-03T11:46:38.875Z,101120
2018-06-03T11:47:39.442Z,115712
2018-06-03T11:48:40.019Z,117088
2018-06-03T11:49:40.588Z,117568
2018-06-03T11:50:41.169Z,114688
2018-06-03T11:51:41.735Z,113440
2018-06-03T11:52:42.309Z,112448
2018-06-03T11:53:42.873Z,114432
2018-06-03T11:54:43.448Z,118048
2018-06-03T11:55:44.021Z,121120
2018-06-03T11:56:44.590Z,126976
2018-06-03T11:57:45.167Z,131360
2018-06-03T11:58:45.740Z,127968
2018-06-03T11:59:46.311Z,124608
2018-06-03T12:00:46.880Z,124352
2018-06-03T12:01:47.464Z,128032
2018-06-03T12:02:48.028Z,50688
2018-06-03T12:03:48.601Z,98944
2018-06-03T12:04:49.179Z,139904
2018-06-03T12:05:49.762Z,123072
2018-06-03T12:06:50.336Z,55264
2018-06-03T12:07:50.903Z,53792
2018-06-03T12:08:51.475Z,44288
2018-06-03T12:09:52.049Z,40960
2018-06-03T12:10:52.616Z,40992
2018-06-03T12:11:53.191Z,39904
2018-06-03T12:12:53.769Z,37952
2018-06-03T12:13:54.339Z,36096
2018-06-03T12:14:54.903Z,34656
2018-06-03T12:15:55.473Z,33920
2018-06-03T12:16:56.046Z,33536
2018-06-03T12:17:56.618Z,31712
2018-06-03T12:18:57.181Z,29696
2018-06-03T12:19:57.755Z,28448
2018-06-03T12:20:58.321Z,27424
2018-06-03T12:21:58.888Z,25536
2018-06-03T12:22:59.460Z,23264
2018-06-03T12:24:00.028Z,22656
2018-06-03T12:25:00.599Z,22816
2018-06-03T12:26:01.173Z,23520
2018-06-03T12:27:01.732Z,24640
2018-06-03T12:28:02.328Z,25536
2018-06-03T12:29:02.864Z,25760
2018-06-03T12:30:03.432Z,26048
2018-06-03T12:31:04.001Z,26592
2018-06-03T12:32:04.569Z,28032
2018-06-03T12:33:05.138Z,29088
2018-06-03T12:34:05.707Z,29152
2018-06-03T12:35:06.271Z,29344
2018-06-03T12:36:06.853Z,29504
2018-06-03T12:37:07.409Z,29248
2018-06-03T12:38:07.982Z,30208
2018-06-03T12:39:08.552Z,43904
2018-06-03T12:40:09.117Z,43840
2018-06-03T12:41:09.685Z,47936
2018-06-03T12:42:10.249Z,39392
2018-06-03T12:43:10.819Z,55808
2018-06-03T12:44:11.389Z,37184
2018-06-03T12:45:11.958Z,35936
2018-06-03T12:46:12.530Z,32928
2018-06-03T12:47:13.098Z,32896
2018-06-03T12:48:13.668Z,36064
2018-06-03T12:49:14.243Z,39616
2018-06-03T12:50:14.809Z,44608
2018-06-03T12:51:15.378Z,117632
2018-06-03T12:52:15.952Z,119424
2018-06-03T12:53:16.519Z,117280
2018-06-03T12:54:17.088Z,113152
2018-06-03T12:55:17.661Z,106144
2018-06-03T12:56:18.231Z,101344
2018-06-03T12:57:18.803Z,100576
2018-06-03T12:58:19.369Z,105248
2018-06-03T12:59:19.940Z,112480
2018-06-03T13:00:20.514Z,118976
2018-06-03T13:01:21.086Z,121312
2018-06-03T13:02:21.652Z,117408
2018-06-03T13:03:22.221Z,111424
2018-06-03T13:04:22.799Z,109152
2018-06-03T13:05:23.366Z,107232
2018-06-03T13:06:23.956Z,110912
2018-06-03T13:07:24.505Z,115584
2018-06-03T13:08:25.077Z,118720
2018-06-03T13:09:25.694Z,118336
2018-06-03T13:10:26.229Z,114272
2018-06-03T13:11:26.801Z,107808
2018-06-03T13:12:27.372Z,100288
2018-06-03T13:13:27.944Z,96448
2018-06-03T13:14:28.515Z,97024
2018-06-03T13:15:29.090Z,101568
2018-06-03T13:16:29.656Z,106176
2018-06-03T13:17:30.232Z,106112
2018-06-03T13:18:30.806Z,103072
2018-06-03T13:19:31.371Z,101280
2018-06-03T13:20:31.940Z,87648
2018-06-03T13:21:32.512Z,97312
2018-06-03T13:22:33.084Z,34048
2018-06-03T13:23:33.650Z,30336